• Join FlightAware (Why Join?)
  • Login
  • US Flag 
03:47PM EST


 

Airport Tracker/Info


-or-


 

Live Flight TrackerFlight Track Log ✈ EGF2934 ✈ 17-May-2012 ✈ KLEX - KDFW

Flight Track Log - Related Links

Times and Time Zones

All times are in EDT time to prevent confusion due to time zone crossing. See the EGF2934 flight status page for this flight to view local times or setup timezone preferences in your user account.

Time Position Orientation Groundspeed Altitude Reporting Facility
EDT Latitude Longitude Course Direction KTS MPH feet Rate Location/Type
01:25PM 37.9495 -84.4863 349° North  Level FlightAware Approximate
01:26PM 37.9159 -84.6038 North  Level FlightAware Approximate
01:27PM 37.8796 -84.7254 23° Northeast  Level FlightAware Approximate
01:28PM 37.8548 -84.8430 33° Northeast  Level FlightAware Approximate
01:29PM 38.2056 -84.5508 248° West 288 331 9,400  Level Indianapolis Center
01:33PM 38.0611 -84.9972 242° Southwest 373 429 13,900 1,140 Climbing Indianapolis Center
01:34PM 38.0117 -85.1150 243° Southwest 381 438 15,300 1,440 Climbing Indianapolis Center
01:35PM 37.9664 -85.2297 240° Southwest 368 423 16,800 1,320 Climbing Indianapolis Center
01:36PM 37.9147 -85.3444 243° Southwest 362 417 18,000 1,320 Climbing Indianapolis Center
01:37PM 37.8669 -85.4617 243° Southwest 372 428 19,500 1,440 Climbing Indianapolis Center
01:38PM 37.8189 -85.5789 241° Southwest 377 434 20,900 1,380 Climbing Indianapolis Center
01:39PM 37.7647 -85.7008 240° Southwest 390 449 22,300 1,440 Climbing Indianapolis Center
01:40PM 37.7103 -85.8200 241° Southwest 390 449 23,800 1,440 Climbing Indianapolis Center
01:41PM 37.6533 -85.9522 242° Southwest 385 443 25,200 1,440 Climbing Indianapolis Center
01:42PM 37.6031 -86.0711 241° Southwest 390 449 26,700 1,320 Climbing Indianapolis Center
01:43PM 37.5525 -86.1847 242° Southwest 385 443 27,900 1,020 Climbing Indianapolis Center
01:44PM 37.5064 -86.2931 241° Southwest 385 443 28,800 900 Climbing Indianapolis Center
01:45PM 37.4533 -86.4139 241° Southwest 391 450 29,800 960 Climbing Indianapolis Center
01:47PM 37.3239 -86.7081 240° Southwest 408 470 32,000 960 Climbing Memphis Center
01:48PM 37.2672 -86.8306 241° Southwest 413 475 33,000 900 Climbing Memphis Center
01:49PM 37.2103 -86.9581 241° Southwest 418 481 33,900 900 Climbing Memphis Center
01:50PM 37.1533 -87.0856 241° Southwest 418 481 34,800 900 Climbing Memphis Center
01:51PM 37.0961 -87.2128 240° Southwest 418 481 35,700 600 Climbing Memphis Center
01:52PM 37.0369 -87.3397 242° Southwest 423 487 36,000 120 Climbing Memphis Center
01:53PM 36.9856 -87.4586 240° Southwest 428 493 36,000  Level Memphis Center
01:54PM 36.9258 -87.5878 241° Southwest 428 493 36,000  Level Memphis Center
01:55PM 36.8664 -87.7197 241° Southwest 434 499 36,000  Level Memphis Center
01:56PM 36.8044 -87.8564 240° Southwest 446 513 36,000  Level Memphis Center
01:57PM 36.7444 -87.9850 240° Southwest 446 513 36,000  Level Memphis Center
01:58PM 36.6883 -88.1083 240° Southwest 451 519 36,000  Level Memphis Center
01:59PM 36.6222 -88.2500 240° Southwest 451 519 36,000  Level Memphis Center
02:00PM 36.5597 -88.3833 240° Southwest 451 519 36,000  Level Memphis Center
02:01PM 36.4972 -88.5164 239° Southwest 451 519 36,000  Level Memphis Center
02:02PM 36.4344 -88.6442 240° Southwest 451 519 36,000  Level Memphis Center
02:03PM 36.3736 -88.7769 238° Southwest 451 519 36,000  Level Memphis Center
02:04PM 36.3086 -88.9044 239° Southwest 451 519 36,000  Level Memphis Center
02:05PM 36.2453 -89.0342 239° Southwest 451 519 36,000  Level Memphis Center
02:06PM 36.1819 -89.1664 239° Southwest 451 519 36,000  Level Memphis Center
02:07PM 36.1186 -89.2983 240° Southwest 451 519 36,000  Level Memphis Center
02:08PM 36.0508 -89.4406 239° Southwest 451 519 36,000  Level Memphis Center
02:09PM 35.9872 -89.5719 239° Southwest 451 519 36,000  Level Memphis Center
02:10PM 35.9253 -89.7008 240° Southwest 451 519 36,000  Level Memphis Center
02:11PM 35.8633 -89.8319 238° Southwest 451 519 36,000  Level Memphis Center
02:12PM 35.7992 -89.9603 239° Southwest 451 519 36,000  Level Memphis Center
02:13PM 35.7350 -90.0936 241° Southwest 451 519 36,000  Level Memphis Center
02:14PM 35.6789 -90.2164 239° Southwest 445 512 36,000  Level Memphis Center
02:15PM 35.6144 -90.3467 238° Southwest 439 505 36,000  Level Memphis Center
02:16PM 35.5497 -90.4744 238° Southwest 445 512 36,000  Level Memphis Center
02:17PM 35.4847 -90.6044 239° Southwest 445 512 36,000  Level Memphis Center
02:18PM 35.4219 -90.7317 238° Southwest 445 512 36,000  Level Memphis Center
02:19PM 35.3653 -90.8433 239° Southwest 450 518 36,000  Level Memphis Center
02:20PM 35.3019 -90.9728 235° Southwest 450 518 36,000  Level Memphis Center
02:21PM 35.2325 -91.0942 239° Southwest 450 518 36,000  Level Memphis Center
02:22PM 35.1714 -91.2208 240° Southwest 439 505 36,000  Level Memphis Center
02:23PM 35.1097 -91.3522 236° Southwest 446 513 36,000  Level Memphis Center
02:24PM 35.0419 -91.4731 238° Southwest 446 513 36,000  Level Memphis Center
02:25PM 34.9783 -91.5964 239° Southwest 446 513 36,000  Level Memphis Center
02:26PM 34.9164 -91.7197 237° Southwest 441 507 36,000  Level Memphis Center
02:27PM 34.8483 -91.8450 239° Southwest 441 507 36,000  Level Memphis Center
02:28PM 34.7883 -91.9653 237° Southwest 441 507 36,000  Level Memphis Center
02:29PM 34.7219 -92.0906 243° Southwest 436 502 36,000  Level Memphis Center
02:30PM 34.6681 -92.2181 252° West 436 502 36,000  Level Memphis Center
02:31PM 34.6328 -92.3511 252° West 426 490 36,000  Level Memphis Center
02:32PM 34.5947 -92.4917 252° West 426 490 36,000  Level Memphis Center
02:33PM 34.5592 -92.6269 252° West 426 490 36,000  Level Memphis Center
02:34PM 34.5186 -92.7744 253° West 426 490 36,000  Level Memphis Center
02:35PM 34.4825 -92.9144 250° West 421 484 36,000  Level Memphis Center
02:36PM 34.4444 -93.0444 253° West 421 484 36,000  Level Memphis Center
02:37PM 34.4100 -93.1792 253° West 420 483 36,000  Level Memphis Center
02:38PM 34.3756 -93.3164 252° West 420 483 36,000  Level Memphis Center
02:39PM 34.3364 -93.4600 252° West 421 484 36,000  Level Fort Worth Center
02:40PM 34.3011 -93.5947 252° West 415 478 36,000  Level Fort Worth Center
02:41PM 34.2653 -93.7294 250° West 415 478 36,000  Level Fort Worth Center
02:42PM 34.2253 -93.8594 252° West 420 483 36,000  Level Fort Worth Center
02:43PM 34.1894 -93.9914 252° West 420 483 36,000  Level Fort Worth Center
02:44PM 34.1533 -94.1258 251° West 420 483 36,000  Level Fort Worth Center
02:45PM 34.1189 -94.2450 252° West 425 489 36,000  Level Fort Worth Center
02:46PM 34.0825 -94.3792 258° West 425 489 36,000 -180 Level Fort Worth Center
02:47PM 34.0586 -94.5131 282° West 425 489 35,700 -420 Descending Fort Worth Center
02:48PM 34.0825 -94.6475 256° West 402 463 35,200 -600 Descending Fort Worth Center
02:49PM 34.0561 -94.7789 246° West 402 463 34,600 -600 Descending Fort Worth Center
02:50PM 34.0086 -94.9081 247° West 407 468 34,100 -600 Descending Fort Worth Center
02:51PM 33.9631 -95.0394 247° West 420 483 33,500 -600 Descending Fort Worth Center
02:52PM 33.9175 -95.1683 247° West 425 489 33,000 -600 Descending Fort Worth Center
02:53PM 33.8717 -95.2972 247° West 425 489 32,400 -600 Descending Fort Worth Center
02:54PM 33.8258 -95.4258 247° West 425 489 31,900 -600 Descending Fort Worth Center
02:55PM 33.7797 -95.5567 249° West 425 489 31,300 -1,500 Descending Fort Worth Center
02:56PM 33.7339 -95.6975 247° West 415 478 29,000 -2,700 Descending Fort Worth Center
02:57PM 33.6897 -95.8233 244° Southwest 415 478 25,900 -3,000 Descending Fort Worth Center
02:58PM 33.6469 -95.9289 247° West 410 472 23,100 -3,060 Descending Fort Worth Center
02:59PM 33.6006 -96.0617 246° West 395 455 19,900 -2,880 Descending Fort Worth Center
03:00PM 33.5639 -96.1619 252° West 381 438 17,300 -2,820 Descending Fort Worth Center
03:01PM 33.5447 -96.2317 229° Southwest 364 419 15,600 -2,880 Descending FAA TRACON SMA TRACON (SMA)
03:02PM 33.5047 -96.2875 225° Southwest 358 412 13,900 -2,700 Descending FAA TRACON SMA TRACON (SMA)
03:02PM 33.4569 -96.3453 222° Southwest 352 405 12,000 -2,220 Descending FAA TRACON SMA TRACON (SMA)
03:03PM 33.4083 -96.3978 224° Southwest 335 386 11,000 -780 Descending FAA TRACON SMA TRACON (SMA)
03:04PM 33.3711 -96.4408 224° Southwest 300 345 11,000 -480 Level FAA TRACON SMA TRACON (SMA)
03:04PM 33.3300 -96.4889 224° Southwest 299 344 10,400 -1,080 Descending FAA TRACON SMA TRACON (SMA)
03:05PM 33.2906 -96.5347 224° Southwest 284 327 9,600 -1,560 Descending FAA TRACON SMA TRACON (SMA)
03:06PM 33.2533 -96.5775 245° Southwest 276 318 8,300 -1,740 Descending FAA TRACON SMA TRACON (SMA)
03:06PM 33.2339 -96.6275 256° West 274 315 7,300 -1,620 Descending FAA TRACON SMA TRACON (SMA)
03:07PM 33.2211 -96.6883 246° West 262 302 6,200 -1,260 Descending FAA TRACON SMA TRACON (SMA)
03:08PM 33.2014 -96.7414 247° West 264 304 5,600 -900 Descending FAA TRACON SMA TRACON (SMA)
03:08PM 33.1817 -96.7961 240° Southwest 261 300 5,000 -480 Descending FAA TRACON SMA TRACON (SMA)
03:09PM 33.1589 -96.8439 232° Southwest 259 298 5,000 -180 Level FAA TRACON SMA TRACON (SMA)
03:10PM 33.1281 -96.8914 232° Southwest 263 303 4,800 -540 Descending FAA TRACON SMA TRACON (SMA)
03:10PM 33.1003 -96.9333 231° Southwest 260 299 4,300 -840 Descending FAA TRACON SMA TRACON (SMA)
03:11PM 33.0719 -96.9756 230° Southwest 242 278 3,700 -1,080 Descending FAA TRACON SMA TRACON (SMA)
03:12PM 33.0436 -97.0153 230° Southwest 228 262 2,900 -1,200 Descending FAA TRACON SMA TRACON (SMA)